Latest Weather Observations for Point Cook

IDV60901

Issued at 7:11 pm EDT Saturday 10 December 2022 (issued every 10 minutes, with the page automatically refreshed every 10 minutes)

About weather observations | Map of Melbourne area stations | Latest observations for Melbourne area | Other Formats
Station Details ID: 087185 Name: POINT COOK RAAF Lat: -37.93 Lon: 144.76 Height: 3.13 m
Data from the previous 72 hours. | See also: Recent months for locations in Victoria
Date/Time
EDT
Temp
°C
App
Temp
°C
Dew
Point
°C
Rel
Hum
%
Delta-T
°C
Wind Press
QNH
hPa
Press
MSL
hPa
Rain since
9am
mm
Dir  Spd
km/h
Gust
km/h
Spd
kts
Gust
kts
10/07:00pm 19.3 16.8 13.5 69 3.3 S 19 24 10 13 1010.2 1010.2 0.0
10/06:30pm 20.2 17.2 11.9 59 4.6 S 19 24 10 13 1010.2 1010.2 0.0
10/06:00pm 21.1 18.7 12.5 58 4.9 S 17 22 9 12 1010.3 1010.3 0.0
10/05:30pm 20.9 18.3 12.1 57 4.9 S 17 24 9 13 1010.5 1010.5 0.0
10/05:00pm 20.6 17.2 11.2 55 5.2 SSE 20 26 11 14 1010.4 1010.4 0.0
10/04:30pm 20.4 16.3 11.3 56 5.0 SSE 24 28 13 15 1010.7 1010.7 0.0
10/04:00pm 20.1 16.6 12.3 61 4.4 SSE 22 28 12 15 1011.4 1011.4 0.0
10/03:30pm 20.3 17.1 12.0 59 4.6 SSE 20 26 11 14 1011.8 1011.8 0.0
10/03:00pm 20.2 16.8 11.4 57 4.9 SSE 20 24 11 13 1012.2 1012.2 0.0
10/02:30pm 20.3 17.3 12.0 59 4.6 S 19 24 10 13 1012.6 1012.6 0.0
10/02:00pm 19.2 15.9 11.0 59 4.5 S 19 24 10 13 1013.3 1013.3 0.0
10/01:30pm 18.8 15.7 10.4 58 4.5 S 17 22 9 12 1013.7 1013.7 0.0
10/01:00pm 17.7 14.5 10.1 61 4.0 SSE 17 20 9 11 1014.0 1014.0 0.0
10/12:30pm 17.2 14.3 9.6 61 4.0 SSE 15 19 8 10 1014.5 1014.5 0.0
10/12:00pm 16.7 14.5 9.4 62 3.8 SSE 11 15 6 8 1015.0 1015.0 0.0
10/11:30am 16.3 14.5 9.5 64 3.5 SSE 9 13 5 7 1015.6 1015.6 0.0
10/11:00am 15.9 14.0 8.9 63 3.6 S 9 15 5 8 1015.6 1015.6 0.0
10/10:30am 15.0 12.9 8.3 64 3.4 S 9 15 5 8 1015.9 1015.9 0.0
10/10:00am 14.4 12.5 7.7 64 3.3 S 7 11 4 6 1016.2 1016.2 0.0
10/09:30am 13.6 11.8 7.2 65 3.1 S 6 9 3 5 1016.7 1016.7 0.0
10/09:00am 13.8 12.0 7.3 65 3.2 SSE 6 13 3 7 1016.7 1016.7 0.0
10/08:30am 13.4 11.4 7.2 66 3.0 SE 7 11 4 6 1016.7 1016.7 0.0
10/08:00am 12.9 10.0 6.5 65 3.0 SE 11 13 6 7 1016.3 1016.3 0.0
10/07:30am 12.7 10.3 7.0 68 2.7 ESE 9 15 5 8 1016.5 1016.5 0.0
10/07:00am 12.4 10.1 7.3 71 2.5 ENE 9 13 5 7 1016.3 1016.3 0.0
10/06:30am 12.2 8.7 7.3 72 2.4 ESE 15 20 8 11 1016.1 1016.1 0.0
10/06:00am 11.7 7.2 7.0 73 2.2 ESE 20 26 11 14 1015.9 1015.9 0.0
10/05:30am 12.0 7.6 7.5 74 2.2 ESE 20 28 11 15 1015.7 1015.7 0.0
10/05:00am 12.3 7.4 7.0 70 2.5 ESE 22 28 12 15 1015.5 1015.5 0.0
10/04:30am 12.6 7.4 7.3 70 2.6 ESE 24 32 13 17 1015.3 1015.3 0.0
10/04:00am 12.6 8.4 7.3 70 2.6 SE 19 24 10 13 1015.9 1015.9 0.0
10/03:30am 12.9 8.7 7.6 70 2.6 SE 19 26 10 14 1016.0 1016.0 0.0
10/03:00am 13.0 9.1 7.2 68 2.8 SE 17 24 9 13 1016.2 1016.2 0.0
10/02:30am 13.2 8.9 7.9 70 2.6 SE 20 26 11 14 1016.1 1016.1 0.0
10/02:00am 13.3 9.2 7.7 69 2.7 ESE 19 24 10 13 1016.5 1016.5 0.0
10/01:30am 13.4 9.3 7.8 69 2.8 SE 19 26 10 14 1016.8 1016.8 0.0
10/01:00am 13.6 9.5 7.8 68 2.9 SE 19 26 10 14 1017.1 1017.1 0.0
10/12:30am 13.4 9.7 7.8 69 2.8 SE 17 22 9 12 1017.4 1017.4 0.0
10/12:00am 13.0 10.0 7.9 71 2.5 SE 13 17 7 9 1017.5 1017.5 0.0
 
Date/Time
EDT
Temp
°C
App
Temp
°C
Dew
Point
°C
Rel
Hum
%
Delta-T
°C
Wind Press
QNH
hPa
Press
MSL
hPa
Rain since
9am
mm
Dir  Spd
km/h
Gust
km/h
Spd
kts
Gust
kts
09/11:30pm 13.2 9.9 7.9 70 2.6 SE 15 20 8 11 1017.7 1017.7 0.0
09/11:00pm 13.3 9.2 8.0 70 2.6 SE 19 26 10 14 1017.7 1017.7 0.0
09/10:30pm 13.2 9.4 7.4 68 2.8 SSE 17 26 9 14 1017.8 1017.8 0.0
09/10:00pm 13.2 9.0 7.6 69 2.7 SSE 19 24 10 13 1017.6 1017.6 0.0
09/09:30pm 13.4 9.0 7.2 66 3.0 SSE 20 28 11 15 1017.7 1017.7 0.0
09/09:00pm 13.4 9.1 7.0 65 3.1 SSE 19 22 10 12 1017.6 1017.6 0.0
09/08:30pm 13.6 9.6 6.5 62 3.4 S 17 24 9 13 1017.5 1017.5 0.0
09/08:00pm 14.2 9.7 6.1 58 3.9 S 19 26 10 14 1017.4 1017.4 0.0
09/07:30pm 14.8 10.3 6.1 56 4.2 S 19 24 10 13 1017.0 1017.0 0.0
09/07:00pm 15.2 10.2 6.5 56 4.2 SSE 22 30 12 16 1016.7 1016.7 0.0
09/06:30pm 15.5 10.2 6.8 56 4.3 SSE 24 33 13 18 1016.5 1016.5 0.0
09/06:00pm 15.9 10.0 7.4 57 4.2 S 28 33 15 18 1016.4 1016.4 0.0
09/05:30pm 16.3 10.4 7.3 55 4.5 S 28 35 15 19 1016.8 1016.8 0.0
09/05:00pm 16.2 9.9 7.2 55 4.5 S 30 35 16 19 1017.0 1017.0 0.0
09/04:30pm 15.6 9.2 6.9 56 4.3 SSW 30 35 16 19 1017.4 1017.4 0.0
09/04:00pm 16.3 10.0 7.3 55 4.5 SSW 30 37 16 20 1017.3 1017.3 0.0
09/03:30pm 16.2 9.7 6.6 53 4.7 SSW 30 35 16 19 1017.4 1017.4 0.0
09/03:00pm 16.1 10.7 6.3 52 4.8 S 24 32 13 17 1017.6 1017.6 0.0
09/02:30pm 15.9 11.0 5.2 49 5.1 S 20 28 11 15 1017.8 1017.8 0.0
09/02:00pm 16.3 11.3 6.4 52 4.8 S 22 32 12 17 1018.0 1018.0 0.0
09/01:30pm 16.3 11.3 6.4 52 4.8 S 22 30 12 16 1018.2 1018.2 0.0
09/01:00pm 15.8 10.3 6.0 52 4.7 S 24 33 13 18 1018.1 1018.1 0.0
09/12:30pm 15.3 9.5 6.1 54 4.4 S 26 35 14 19 1018.3 1018.3 0.0
09/12:00pm 16.1 10.7 6.3 52 4.8 S 24 32 13 17 1018.5 1018.5 0.0
09/11:30am 15.4 9.8 5.3 51 4.8 S 24 30 13 16 1018.4 1018.4 0.0
09/11:00am 15.6 9.9 4.9 49 5.0 S 24 30 13 16 1018.5 1018.5 0.0
09/10:30am 15.1 9.9 5.6 53 4.5 S 22 32 12 17 1018.3 1018.3 0.0
09/10:00am 14.8 9.0 4.5 50 4.8 S 24 33 13 18 1018.3 1018.3 0.0
09/09:30am 14.9 9.2 4.9 51 4.7 S 24 32 13 17 1018.4 1018.4 0.0
09/09:00am 14.7 9.6 5.8 55 4.2 S 22 32 12 17 1018.1 1018.1 0.2
09/08:30am 13.8 9.0 5.4 57 3.9 SSE 20 28 11 15 1017.9 1017.9 0.2
09/08:00am 12.7 8.7 4.9 59 3.6 SSE 15 22 8 12 1017.7 1017.7 0.2
09/07:30am 12.7 7.7 3.4 53 4.1 SSE 19 24 10 13 1017.4 1017.4 0.2
09/07:00am 12.7 6.6 2.8 51 4.3 S 24 32 13 17 1016.9 1016.9 0.2
09/06:30am 12.3 6.4 4.0 57 3.7 S 24 32 13 17 1016.8 1016.8 0.2
09/06:00am 12.2 5.9 3.9 57 3.7 S 26 35 14 19 1016.7 1016.7 0.2
09/05:30am 12.4 6.2 2.3 50 4.4 S 24 32 13 17 1016.4 1016.4 0.2
09/05:00am 12.3 6.0 5.7 64 3.1 S 28 41 15 22 1015.7 1015.7 0.2
09/04:30am 12.4 6.4 5.1 61 3.4 S 26 33 14 18 1015.7 1015.7 0.2
09/04:00am 12.4 5.9 4.6 59 3.6 S 28 33 15 18 1016.1 1016.1 0.2
09/03:30am 11.3 6.2 6.2 71 2.4 SSW 22 30 12 16 1016.5 1016.5 0.2
09/03:17am 11.9 5.6 5.8 66 2.8 SSW 28 46 15 25 1016.7 1016.7 0.2
09/03:00am 12.1 6.0 4.6 60 3.4 SSW 26 33 14 18 1016.9 1016.9 0.2
09/02:30am 11.7 5.5 4.2 60 3.4 SSW 26 33 14 18 1017.0 1017.0 0.2
09/02:00am 11.9 5.6 3.7 57 3.6 SSW 26 37 14 20 1017.3 1017.3 0.2
09/01:30am 12.1 5.4 3.9 57 3.7 SSW 28 35 15 19 1017.5 1017.5 0.2
09/01:00am 12.0 6.1 5.9 66 2.8 SW 26 37 14 20 1017.7 1017.7 0.2
09/12:30am 12.4 6.8 5.6 63 3.2 SSW 24 33 13 18 1017.5 1017.5 0.2
09/12:00am 12.2 5.9 5.6 64 3.1 SSW 28 37 15 20 1017.2 1017.2 0.2
 
Date/Time
EDT
Temp
°C
App
Temp
°C
Dew
Point
°C
Rel
Hum
%
Delta-T
°C
Wind Press
QNH
hPa
Press
MSL
hPa
Rain since
9am
mm
Dir  Spd
km/h
Gust
km/h
Spd
kts
Gust
kts
08/11:30pm 12.4 6.2 4.1 57 3.7 SSW 26 32 14 17 1017.4 1017.4 0.2
08/11:00pm 12.2 6.0 4.4 59 3.5 SSW 26 35 14 19 1017.6 1017.6 0.2
08/10:30pm 12.5 6.5 5.4 62 3.3 SSW 26 33 14 18 1017.6 1017.6 0.2
08/10:00pm 12.0 5.9 4.7 61 3.3 SW 26 35 14 19 1017.2 1017.2 0.2
08/09:30pm 12.1 5.3 5.3 63 3.1 SW 30 39 16 21 1016.9 1016.9 0.2
08/09:00pm 12.4 5.1 4.6 59 3.6 SSW 32 43 17 23 1016.6 1016.6 0.2
08/08:30pm 12.7 4.8 4.2 56 3.9 SSW 35 44 19 24 1016.6 1016.6 0.2
08/08:00pm 13.2 5.9 4.4 55 4.0 SSW 32 43 17 23 1016.6 1016.6 0.2
08/07:30pm 13.7 5.8 4.6 54 4.2 SSW 35 46 19 25 1016.3 1016.3 0.2
08/07:00pm 13.8 5.9 4.1 52 4.4 SSW 35 44 19 24 1016.0 1016.0 0.2
08/06:30pm 14.4 6.6 4.7 52 4.5 SSW 35 44 19 24 1015.5 1015.5 0.2
08/06:00pm 14.9 7.1 4.9 51 4.7 SSW 35 48 19 26 1015.3 1015.3 0.2
08/05:30pm 15.4 7.4 3.9 46 5.3 SSW 35 46 19 25 1015.1 1015.1 0.2
08/05:00pm 15.5 7.8 5.4 51 4.8 SSW 35 46 19 25 1015.2 1015.2 0.2
08/04:30pm 15.6 8.5 5.5 51 4.8 SSW 32 43 17 23 1015.1 1015.1 0.2
08/04:00pm 15.8 8.5 5.4 50 5.0 SSW 33 43 18 23 1015.1 1015.1 0.2
08/03:30pm 15.3 8.4 7.1 58 4.0 SSW 33 43 18 23 1015.1 1015.1 0.2
08/03:00pm 15.5 8.0 4.3 47 5.2 SSW 33 43 18 23 1015.2 1015.2 0.2
08/02:30pm 15.8 8.4 4.8 48 5.2 SSW 33 46 18 25 1015.1 1015.1 0.2
08/02:00pm 16.2 9.0 6.1 51 4.9 SSW 33 48 18 26 1015.0 1015.0 0.2
08/01:30pm 15.4 8.7 7.2 58 4.0 S 32 39 17 21 1015.0 1015.0 0.2
08/01:00pm 15.2 7.4 5.1 51 4.8 SSW 35 46 19 25 1015.1 1015.1 0.2
08/12:30pm 15.5 7.4 5.1 50 4.9 SW 37 50 20 27 1015.0 1015.0 0.2
08/12:00pm 16.2 9.0 5.2 48 5.2 SW 32 46 17 25 1014.7 1014.7 0.2
08/11:30am 15.9 8.5 6.9 55 4.4 SW 35 44 19 24 1014.6 1014.6 0.2
08/11:00am 13.7 7.5 6.1 60 3.6 WSW 28 41 15 22 1014.7 1014.7 0.2
08/10:30am 13.0 6.2 7.0 67 2.9 SW 32 39 17 21 1014.5 1014.5 0.0
08/10:15am 12.5 6.6 7.4 71 2.5 SW 28 54 15 29 1014.5 1014.5 0.0
08/10:00am 11.8 4.1 7.3 74 2.2 SW 37 50 20 27 1014.3 1014.3 0.0
08/09:30am 14.0 7.7 5.9 58 3.8 WSW 28 39 15 21 1013.8 1013.8 0.0
08/09:00am 12.4 6.2 6.0 65 3.0 WSW 28 41 15 22 1013.5 1013.5 0.0
08/08:30am 11.3 6.5 5.4 67 2.7 W 20 30 11 16 1013.0 1013.0 0.0
08/08:00am 9.8 5.3 6.2 78 1.7 WSW 19 24 10 13 1012.7 1012.7 0.0
08/07:30am 9.5 3.2 5.9 78 1.6 WSW 28 46 15 25 1012.3 1012.3 0.0
08/07:00am 8.6 3.8 4.8 77 1.7 W 19 24 10 13 1011.8 1011.8 0.0
08/06:30am 8.3 3.9 4.9 79 1.5 W 17 22 9 12 1011.4 1011.4 0.0
08/06:00am 8.2 3.8 4.8 79 1.5 W 17 24 9 13 1011.1 1011.1 0.0
08/05:30am 8.2 3.4 4.8 79 1.5 W 19 24 10 13 1010.6 1010.6 0.0
08/05:00am 8.2 3.4 4.6 78 1.6 W 19 24 10 13 1010.6 1010.6 0.0
08/04:30am 8.4 3.4 4.4 76 1.8 W 20 30 11 16 1010.5 1010.5 0.0
08/04:00am 8.5 3.5 4.5 76 1.8 W 20 28 11 15 1010.7 1010.7 0.0
08/03:30am 8.6 3.7 4.2 74 1.9 W 19 24 10 13 1010.4 1010.4 0.0
08/03:00am 8.7 4.2 4.3 74 1.9 W 17 24 9 13 1010.2 1010.2 0.0
08/02:30am 8.9 4.1 4.5 74 1.9 W 19 28 10 15 1010.4 1010.4 0.0
08/02:00am 8.9 4.0 4.3 73 2.0 W 19 26 10 14 1010.3 1010.3 0.0
08/01:30am 8.7 4.7 4.7 76 1.8 WNW 15 26 8 14 1010.5 1010.5 0.0
08/01:00am 9.1 4.7 4.5 73 2.0 W 17 26 9 14 1010.6 1010.6 0.0
08/12:30am 9.6 4.8 4.8 72 2.1 W 19 26 10 14 1010.7 1010.7 0.0
08/12:00am 10.0 5.5 4.4 68 2.5 W 17 24 9 13 1010.6 1010.6 0.0
 
Date/Time
EDT
Temp
°C
App
Temp
°C
Dew
Point
°C
Rel
Hum
%
Delta-T
°C
Wind Press
QNH
hPa
Press
MSL
hPa
Rain since
9am
mm
Dir  Spd
km/h
Gust
km/h
Spd
kts
Gust
kts
07/11:30pm 10.5 5.4 4.2 65 2.8 W 20 26 11 14 1010.4 1010.4 0.0
07/11:00pm 11.5 5.4 4.7 63 3.1 W 26 37 14 20 1010.2 1010.2 0.0
07/10:30pm 11.8 5.0 5.0 63 3.1 W 30 43 16 23 1009.7 1009.7 0.0
07/10:00pm 12.2 5.5 5.4 63 3.2 W 30 46 16 25 1008.8 1008.8 0.0
07/09:57pm 12.3 6.0 5.7 64 3.1 W 28 46 15 25 1008.8 1008.8 0.0
07/09:30pm 12.4 7.2 7.3 71 2.5 W 24 35 13 19 1008.3 1008.3 0.0
07/09:00pm 13.2 7.3 7.6 69 2.7 WSW 28 46 15 25 1007.6 1007.6 0.0
07/08:30pm 13.6 8.0 8.7 72 2.5 W 28 41 15 22 1007.0 1007.0 0.0
07/08:00pm 13.6 7.8 9.5 76 2.1 W 30 46 16 25 1006.7 1006.7 0.0
07/07:30pm 13.9 7.4 9.1 73 2.4 WSW 33 54 18 29 1006.0 1006.0 0.0

Latest Capital City Observations: Canberra | Sydney | Melbourne | Brisbane | Adelaide | Perth | Hobart | Darwin

Other formats

Comma delimited format used in spreadsheet applications
http://www.bom.gov.au/fwo/IDV60901/IDV60901.95941.axf

JavaScript Object Notation format (JSON) in row-major order
http://www.bom.gov.au/fwo/IDV60901/IDV60901.95941.json

Data quality

Most of these data are generated automatically and are frequently updated. Quality checks on data are not normally performed. It is possible for incorrect values to appear. Refer to information at About Latest Weather Observations and please check the disclaimer before using these data.